Sapporo, Japan

10:17 PM JST on July 29, 2016 (GMT +0900)
Rue des Sausses | | Change Station

Elev 0 ft 43.05 °N, 141.33 °E | Updated 2 minutes ago

Mostly Cloudy
Mostly Cloudy
73.2 °F
Feels Like 71 °F
N
1.9
Wind Variable Wind from SSE
Gusts 6.2 mph

Today
High -- | Low -- °F
--% Chance of Precip.
Yesterday
High -- | Low -- °F
Precip. -- in
Pressure 29.92 in
Visibility 6.2 miles
Clouds Few 400 ft
Scattered Clouds 700 ft
Mostly Cloudy 1200 ft
Heat Index 71 °F
Dew Point 70 °F
Humidity 91%
Rainfall in
Snow Depth Not available.
4:22 AM 6:59 PM
Waning Crescent, 22% visible
METAR RJCC 291300Z 18008KT 9999 FEW004 SCT007 BKN012 21/21 Q1013 RMK 1ST004 3ST007 7ST012 A2991
Pressure 29.92 in
Visibility 6.2 miles
Clouds Few 400 ft
Scattered Clouds 700 ft
Mostly Cloudy 1200 ft
Heat Index 71 °F
Dew Point 70 °F
Humidity 91%
Rainfall in
Snow Depth Not available.
4:22 AM 6:59 PM
Waning Crescent, 22% visible
METAR RJCC 291300Z 18008KT 9999 FEW004 SCT007 BKN012 21/21 Q1013 RMK 1ST004 3ST007 7ST012 A2991

10-Day Weather Forecast

No radar image for this location.
×

Almanac

Astronomy

Jul. 29, 2016 Rise Set
Actual Time
Civil Twilight
Nautical Twilight
Astronomical Twilight
Moon
Length of Visible Light
Length of Day
Tomorrow will be .
, % of the Moon is Illuminated

Today's Extremes

Country Highs Country Lows

Community

WunderPhotos

Upload Photos

1,928,339 photos uploaded!

WunderBlog® & News

Nearby

Air Quality

  Air Quality AQ Index Pollutant
Not available.

Snow Depth

Station Depth Elevation

Earthquake Activity

City Distance Mag. Time & Date
Minimum magnitude displayed is 2.5.

Coastal Water Temperatures

Place Temperature

Stations

Nearby Weather Stations

Station Location Temp. Windchill Dew Point Humidity Wind Precip. Elev Updated Type